デリー の空港の天気 - METARとTAF

インディラ・ガンディー国際空港 ( VIDP / DEL ) - インド デリー
飛行場実況気象(Metar)
観測時間03/29 02:30 IST (03/28 21:00 UTC)
風向・風速西 2m/s
視程3000m
天気現象煙霧
なし
気温24℃
湿度65%
気圧1009hPa
METARVIDP 282100Z 26003KT 3000 HZ NSC 24/17 Q1009 NOSIG
過去の天気等 Google飛行場航空写真 Wunderground天気予報

過去48時間のMETAR

飛行場予報(TAF)
発表時間: 3/28 22:30 IST (3/28 17:00 UTC)
予報対象時間: 28日23時 IST ~ 30日5時 IST
風向・風速西南西 2m/s
視程3,000m
天気現象煙霧
なし
29日5時 IST ~ 29日7時 IST に徐々に
視程1,000m
天気現象もや 煙
29日9時 IST ~ 29日10時 IST に徐々に
風向・風速西北西 3m/s
視程2,500m
天気現象煙 煙霧
29日13時 IST ~ 29日15時 IST に徐々に
風向・風速西北西 4m/s 瞬間風速 9m/s
視程4,000m
天気現象煙霧
29日20時 IST ~ 29日22時 IST に徐々に
風向・風速西南西 2m/s
視程3,000m
天気現象煙霧
30日2時 IST ~ 30日4時 IST に徐々に
風向・風速不定 1m/s
視程2,000m
天気現象煙霧 煙
TAF VIDP 281700Z 2818/2924 24004KT 3000 HZ NSC
BECMG 2900/2902 1000 BR FU
BECMG 2904/2905 29006KT 2500 FU HZ
BECMG 2908/2910 30008G18KT 4000 HZ
BECMG 2915/2917 24004KT 3000 HZ
BECMG 2921/2923 VRB02KT 2000 HZ FU